sensor_id;sensor_type;location;lat;lon;timestamp;temperature;humidity
2565;DHT22;1292;48.020;7.822;2022-10-16T05:45:41;15.90;99.90
2565;DHT22;1292;48.020;7.822;2022-10-16T05:48:08;15.90;99.90
2565;DHT22;1292;48.020;7.822;2022-10-16T05:50:35;15.90;99.90
2565;DHT22;1292;48.020;7.822;2022-10-16T05:53:02;15.90;99.90
2565;DHT22;1292;48.020;7.822;2022-10-16T05:55:28;15.90;99.90
2565;DHT22;1292;48.020;7.822;2022-10-16T05:57:55;15.90;99.90
2565;DHT22;1292;48.020;7.822;2022-10-16T06:00:22;15.90;99.90
2565;DHT22;1292;48.020;7.822;2022-10-16T06:02:50;16.00;99.90
2565;DHT22;1292;48.020;7.822;2022-10-16T06:05:17;16.00;99.90
2565;DHT22;1292;48.020;7.822;2022-10-16T06:07:44;16.00;99.90
2565;DHT22;1292;48.020;7.822;2022-10-16T06:10:11;16.00;99.90
2565;DHT22;1292;48.020;7.822;2022-10-16T06:12:37;16.10;99.90
2565;DHT22;1292;48.020;7.822;2022-10-16T06:15:05;16.00;99.90
2565;DHT22;1292;48.020;7.822;2022-10-16T06:17:32;16.10;99.90
2565;DHT22;1292;48.020;7.822;2022-10-16T06:20:00;16.10;99.90
2565;DHT22;1292;48.020;7.822;2022-10-16T06:22:27;16.10;99.90
2565;DHT22;1292;48.020;7.822;2022-10-16T06:24:53;16.20;99.90
2565;DHT22;1292;48.020;7.822;2022-10-16T06:27:20;16.10;99.90
2565;DHT22;1292;48.020;7.822;2022-10-16T06:29:47;16.10;99.90
2565;DHT22;1292;48.020;7.822;2022-10-16T06:32:14;16.10;99.90
2565;DHT22;1292;48.020;7.822;2022-10-16T06:34:41;16.20;99.90
2565;DHT22;1292;48.020;7.822;2022-10-16T06:37:09;16.30;99.90
2565;DHT22;1292;48.020;7.822;2022-10-16T06:39:36;16.30;99.90
2565;DHT22;1292;48.020;7.822;2022-10-16T06:42:02;16.30;99.90
2565;DHT22;1292;48.020;7.822;2022-10-16T06:44:29;16.20;99.90
2565;DHT22;1292;48.020;7.822;2022-10-16T06:46:56;16.20;99.90
2565;DHT22;1292;48.020;7.822;2022-10-16T06:49:23;16.20;99.90
2565;DHT22;1292;48.020;7.822;2022-10-16T06:51:50;16.10;99.90
2565;DHT22;1292;48.020;7.822;2022-10-16T06:54:18;16.10;99.90
2565;DHT22;1292;48.020;7.822;2022-10-16T06:56:45;16.10;99.90
2565;DHT22;1292;48.020;7.822;2022-10-16T06:59:12;16.10;99.90
2565;DHT22;1292;48.020;7.822;2022-10-16T07:01:39;16.20;99.90
2565;DHT22;1292;48.020;7.822;2022-10-16T07:04:06;16.20;99.90
2565;DHT22;1292;48.020;7.822;2022-10-16T07:06:34;16.30;99.90
2565;DHT22;1292;48.020;7.822;2022-10-16T07:09:03;16.20;99.90
2565;DHT22;1292;48.020;7.822;2022-10-16T07:11:33;16.30;99.90
2565;DHT22;1292;48.020;7.822;2022-10-16T07:13:59;16.40;99.90
2565;DHT22;1292;48.020;7.822;2022-10-16T07:16:28;16.40;99.90
2565;DHT22;1292;48.020;7.822;2022-10-16T07:18:56;16.40;99.90
2565;DHT22;1292;48.020;7.822;2022-10-16T07:21:25;16.50;99.90
2565;DHT22;1292;48.020;7.822;2022-10-16T07:23:55;16.50;99.90
2565;DHT22;1292;48.020;7.822;2022-10-16T07:26:23;16.50;99.90
2565;DHT22;1292;48.020;7.822;2022-10-16T07:28:51;16.40;99.90
2565;DHT22;1292;48.020;7.822;2022-10-16T07:31:19;16.50;99.90
2565;DHT22;1292;48.020;7.822;2022-10-16T07:33:47;16.50;99.90
2565;DHT22;1292;48.020;7.822;2022-10-16T07:36:15;16.50;99.90
2565;DHT22;1292;48.020;7.822;2022-10-16T07:38:43;16.50;99.90
2565;DHT22;1292;48.020;7.822;2022-10-16T07:41:12;16.50;99.90
2565;DHT22;1292;48.020;7.822;2022-10-16T07:43:40;16.50;99.90
2565;DHT22;1292;48.020;7.822;2022-10-16T07:46:08;16.50;99.90
2565;DHT22;1292;48.020;7.822;2022-10-16T07:48:35;16.60;99.90
2565;DHT22;1292;48.020;7.822;2022-10-16T07:51:04;16.60;99.90
2565;DHT22;1292;48.020;7.822;2022-10-16T07:53:31;16.70;99.90
2565;DHT22;1292;48.020;7.822;2022-10-16T07:55:59;16.80;99.90
2565;DHT22;1292;48.020;7.822;2022-10-16T07:58:27;16.80;99.90
2565;DHT22;1292;48.020;7.822;2022-10-16T08:00:54;16.90;99.90
2565;DHT22;1292;48.020;7.822;2022-10-16T08:03:22;17.00;99.90
2565;DHT22;1292;48.020;7.822;2022-10-16T08:05:49;17.00;99.90
2565;DHT22;1292;48.020;7.822;2022-10-16T08:08:17;17.10;99.90
2565;DHT22;1292;48.020;7.822;2022-10-16T08:10:45;17.20;99.90
2565;DHT22;1292;48.020;7.822;2022-10-16T08:13:12;17.20;99.90
2565;DHT22;1292;48.020;7.822;2022-10-16T08:15:40;17.30;99.90
2565;DHT22;1292;48.020;7.822;2022-10-16T08:18:07;17.40;99.90
2565;DHT22;1292;48.020;7.822;2022-10-16T08:20:37;17.40;99.90
2565;DHT22;1292;48.020;7.822;2022-10-16T08:23:04;17.50;99.90
2565;DHT22;1292;48.020;7.822;2022-10-16T08:25:34;17.60;99.90
2565;DHT22;1292;48.020;7.822;2022-10-16T08:28:03;17.70;99.90
2565;DHT22;1292;48.020;7.822;2022-10-16T08:30:30;17.70;99.90
2565;DHT22;1292;48.020;7.822;2022-10-16T08:32:57;17.80;99.90
2565;DHT22;1292;48.020;7.822;2022-10-16T08:35:24;17.80;99.90
2565;DHT22;1292;48.020;7.822;2022-10-16T08:37:52;17.90;99.90
2565;DHT22;1292;48.020;7.822;2022-10-16T08:40:22;17.90;99.90
2565;DHT22;1292;48.020;7.822;2022-10-16T08:48:34;18.10;99.90
2565;DHT22;1292;48.020;7.822;2022-10-16T08:51:04;18.20;99.90
2565;DHT22;1292;48.020;7.822;2022-10-16T08:53:38;18.20;99.90
2565;DHT22;1292;48.020;7.822;2022-10-16T08:56:07;18.30;99.90
2565;DHT22;1292;48.020;7.822;2022-10-16T08:58:34;18.30;99.90
2565;DHT22;1292;48.020;7.822;2022-10-16T09:01:03;18.30;99.90
2565;DHT22;1292;48.020;7.822;2022-10-16T09:03:47;18.40;99.90
2565;DHT22;1292;48.020;7.822;2022-10-16T09:09:37;18.60;99.90
2565;DHT22;1292;48.020;7.822;2022-10-16T09:12:13;18.60;99.90
2565;DHT22;1292;48.020;7.822;2022-10-16T09:14:52;18.70;99.90
2565;DHT22;1292;48.020;7.822;2022-10-16T09:17:34;18.80;99.90
2565;DHT22;1292;48.020;7.822;2022-10-16T09:20:18;18.80;99.90
2565;DHT22;1292;48.020;7.822;2022-10-16T09:22:46;18.90;99.90
2565;DHT22;1292;48.020;7.822;2022-10-16T09:25:16;18.90;99.90
2565;DHT22;1292;48.020;7.822;2022-10-16T09:27:46;19.00;99.90
2565;DHT22;1292;48.020;7.822;2022-10-16T09:30:16;19.10;99.90
2565;DHT22;1292;48.020;7.822;2022-10-16T09:32:44;19.20;99.90
2565;DHT22;1292;48.020;7.822;2022-10-16T09:35:14;19.40;99.90
2565;DHT22;1292;48.020;7.822;2022-10-16T09:37:42;19.50;99.90
2565;DHT22;1292;48.020;7.822;2022-10-16T09:40:23;19.60;99.90
2565;DHT22;1292;48.020;7.822;2022-10-16T09:42:53;19.70;99.90
2565;DHT22;1292;48.020;7.822;2022-10-16T09:45:23;19.80;99.90
2565;DHT22;1292;48.020;7.822;2022-10-16T09:47:50;19.90;99.90
2565;DHT22;1292;48.020;7.822;2022-10-16T09:50:23;20.10;99.90
2565;DHT22;1292;48.020;7.822;2022-10-16T09:53:03;20.30;99.90
2565;DHT22;1292;48.020;7.822;2022-10-16T09:55:31;20.50;99.90
2565;DHT22;1292;48.020;7.822;2022-10-16T09:57:58;20.70;99.90
2565;DHT22;1292;48.020;7.822;2022-10-16T10:00:25;20.80;99.90
2565;DHT22;1292;48.020;7.822;2022-10-16T10:02:53;21.00;99.90
2565;DHT22;1292;48.020;7.822;2022-10-16T10:05:22;21.10;99.90
2565;DHT22;1292;48.020;7.822;2022-10-16T10:07:55;21.20;99.90
2565;DHT22;1292;48.020;7.822;2022-10-16T10:10:24;21.30;99.90
2565;DHT22;1292;48.020;7.822;2022-10-16T10:12:53;21.30;99.90
2565;DHT22;1292;48.020;7.822;2022-10-16T10:15:21;21.40;99.90
2565;DHT22;1292;48.020;7.822;2022-10-16T10:17:50;21.50;99.90
2565;DHT22;1292;48.020;7.822;2022-10-16T10:20:27;21.50;99.90
2565;DHT22;1292;48.020;7.822;2022-10-16T10:22:55;21.60;99.90
2565;DHT22;1292;48.020;7.822;2022-10-16T10:25:35;21.60;99.90
2565;DHT22;1292;48.020;7.822;2022-10-16T10:28:22;21.60;99.90
2565;DHT22;1292;48.020;7.822;2022-10-16T10:30:57;21.60;99.90
2565;DHT22;1292;48.020;7.822;2022-10-16T10:33:31;21.70;99.90
2565;DHT22;1292;48.020;7.822;2022-10-16T10:36:09;21.70;99.90
2565;DHT22;1292;48.020;7.822;2022-10-16T10:38:45;21.70;99.90
2565;DHT22;1292;48.020;7.822;2022-10-16T10:44:18;21.80;99.90
2565;DHT22;1292;48.020;7.822;2022-10-16T10:49:30;21.90;99.90
2565;DHT22;1292;48.020;7.822;2022-10-16T10:52:11;21.90;99.90
2565;DHT22;1292;48.020;7.822;2022-10-16T10:54:47;22.00;99.90
2565;DHT22;1292;48.020;7.822;2022-10-16T10:57:22;22.10;99.90
2565;DHT22;1292;48.020;7.822;2022-10-16T11:00:06;22.10;99.90
2565;DHT22;1292;48.020;7.822;2022-10-16T11:02:41;22.20;99.90
2565;DHT22;1292;48.020;7.822;2022-10-16T11:05:29;22.20;99.90
2565;DHT22;1292;48.020;7.822;2022-10-16T11:07:59;22.30;99.90
2565;DHT22;1292;48.020;7.822;2022-10-16T11:10:30;22.30;99.90
2565;DHT22;1292;48.020;7.822;2022-10-16T11:13:08;22.30;99.90
2565;DHT22;1292;48.020;7.822;2022-10-16T11:15:39;22.30;99.90
2565;DHT22;1292;48.020;7.822;2022-10-16T11:18:13;22.30;99.90
2565;DHT22;1292;48.020;7.822;2022-10-16T11:20:47;22.30;99.90
2565;DHT22;1292;48.020;7.822;2022-10-16T11:23:18;22.40;99.90
2565;DHT22;1292;48.020;7.822;2022-10-16T11:25:48;22.50;99.90
2565;DHT22;1292;48.020;7.822;2022-10-16T11:28:19;22.50;99.90
2565;DHT22;1292;48.020;7.822;2022-10-16T11:30:51;22.60;99.90
2565;DHT22;1292;48.020;7.822;2022-10-16T11:33:30;22.70;99.90
2565;DHT22;1292;48.020;7.822;2022-10-16T11:36:04;22.80;99.90
2565;DHT22;1292;48.020;7.822;2022-10-16T11:38:38;22.90;99.90
2565;DHT22;1292;48.020;7.822;2022-10-16T11:41:15;22.90;99.90
2565;DHT22;1292;48.020;7.822;2022-10-16T11:43:50;23.00;99.90
2565;DHT22;1292;48.020;7.822;2022-10-16T11:46:22;23.10;99.90
2565;DHT22;1292;48.020;7.822;2022-10-16T11:48:55;23.20;99.90
2565;DHT22;1292;48.020;7.822;2022-10-16T11:51:29;23.30;99.90
2565;DHT22;1292;48.020;7.822;2022-10-16T11:54:01;23.50;99.90
2565;DHT22;1292;48.020;7.822;2022-10-16T11:56:30;23.60;99.90
2565;DHT22;1292;48.020;7.822;2022-10-16T11:59:00;23.70;99.90
2565;DHT22;1292;48.020;7.822;2022-10-16T12:01:33;23.70;99.90
2565;DHT22;1292;48.020;7.822;2022-10-16T12:04:16;23.60;99.90
2565;DHT22;1292;48.020;7.822;2022-10-16T12:06:49;23.70;99.90
2565;DHT22;1292;48.020;7.822;2022-10-16T12:09:23;23.70;99.90
2565;DHT22;1292;48.020;7.822;2022-10-16T12:11:51;23.80;99.90
2565;DHT22;1292;48.020;7.822;2022-10-16T12:14:21;23.80;99.90
2565;DHT22;1292;48.020;7.822;2022-10-16T12:16:54;23.80;99.90
2565;DHT22;1292;48.020;7.822;2022-10-16T12:19:22;23.80;99.90
2565;DHT22;1292;48.020;7.822;2022-10-16T12:21:51;23.80;99.90
2565;DHT22;1292;48.020;7.822;2022-10-16T12:24:32;23.90;99.90
2565;DHT22;1292;48.020;7.822;2022-10-16T12:27:00;23.90;99.90
2565;DHT22;1292;48.020;7.822;2022-10-16T12:29:33;23.90;99.90
2565;DHT22;1292;48.020;7.822;2022-10-16T12:32:03;23.90;99.90
2565;DHT22;1292;48.020;7.822;2022-10-16T12:34:37;23.90;99.90
2565;DHT22;1292;48.020;7.822;2022-10-16T12:37:11;23.90;99.90
2565;DHT22;1292;48.020;7.822;2022-10-16T12:39:39;24.00;99.90
2565;DHT22;1292;48.020;7.822;2022-10-16T12:42:21;24.00;99.90
2565;DHT22;1292;48.020;7.822;2022-10-16T12:44:48;23.90;99.90
2565;DHT22;1292;48.020;7.822;2022-10-16T12:47:35;24.00;99.90
2565;DHT22;1292;48.020;7.822;2022-10-16T12:50:03;24.10;99.90
2565;DHT22;1292;48.020;7.822;2022-10-16T12:52:36;24.00;99.90
2565;DHT22;1292;48.020;7.822;2022-10-16T12:55:05;24.10;99.90
2565;DHT22;1292;48.020;7.822;2022-10-16T12:57:43;24.00;99.90
2565;DHT22;1292;48.020;7.822;2022-10-16T13:00:20;24.00;99.90
2565;DHT22;1292;48.020;7.822;2022-10-16T13:03:01;24.00;99.90
2565;DHT22;1292;48.020;7.822;2022-10-16T13:05:38;24.10;99.90
2565;DHT22;1292;48.020;7.822;2022-10-16T13:08:24;24.10;99.90
2565;DHT22;1292;48.020;7.822;2022-10-16T13:11:00;24.10;99.90
2565;DHT22;1292;48.020;7.822;2022-10-16T13:13:49;24.10;99.90
2565;DHT22;1292;48.020;7.822;2022-10-16T13:16:25;24.00;99.90
2565;DHT22;1292;48.020;7.822;2022-10-16T13:19:03;24.10;99.90
2565;DHT22;1292;48.020;7.822;2022-10-16T13:21:44;24.10;99.90
2565;DHT22;1292;48.020;7.822;2022-10-16T13:24:36;24.10;99.90
2565;DHT22;1292;48.020;7.822;2022-10-16T13:27:11;24.00;99.90
2565;DHT22;1292;48.020;7.822;2022-10-16T13:29:42;24.00;99.90
2565;DHT22;1292;48.020;7.822;2022-10-16T13:32:10;24.00;99.90
2565;DHT22;1292;48.020;7.822;2022-10-16T13:34:46;24.00;99.90
2565;DHT22;1292;48.020;7.822;2022-10-16T13:37:17;24.00;99.90
2565;DHT22;1292;48.020;7.822;2022-10-16T13:39:45;24.00;99.90
2565;DHT22;1292;48.020;7.822;2022-10-16T13:42:14;24.00;99.90
2565;DHT22;1292;48.020;7.822;2022-10-16T13:44:43;24.00;99.90
2565;DHT22;1292;48.020;7.822;2022-10-16T13:47:16;23.90;99.90
2565;DHT22;1292;48.020;7.822;2022-10-16T13:49:46;23.90;99.90
2565;DHT22;1292;48.020;7.822;2022-10-16T13:52:18;23.90;99.90
2565;DHT22;1292;48.020;7.822;2022-10-16T13:54:45;23.90;99.90
2565;DHT22;1292;48.020;7.822;2022-10-16T13:57:13;23.80;99.90
2565;DHT22;1292;48.020;7.822;2022-10-16T13:59:40;23.90;99.90
2565;DHT22;1292;48.020;7.822;2022-10-16T14:02:19;23.90;99.90
2565;DHT22;1292;48.020;7.822;2022-10-16T14:04:49;23.90;99.90
2565;DHT22;1292;48.020;7.822;2022-10-16T14:07:23;23.90;99.90
2565;DHT22;1292;48.020;7.822;2022-10-16T14:09:51;23.90;99.90
2565;DHT22;1292;48.020;7.822;2022-10-16T14:12:19;23.90;99.90
2565;DHT22;1292;48.020;7.822;2022-10-16T14:14:48;23.90;99.90
2565;DHT22;1292;48.020;7.822;2022-10-16T14:17:17;23.80;99.90
2565;DHT22;1292;48.020;7.822;2022-10-16T14:19:48;23.90;99.90
2565;DHT22;1292;48.020;7.822;2022-10-16T14:22:26;23.80;99.90
2565;DHT22;1292;48.020;7.822;2022-10-16T14:24:55;23.80;99.90
2565;DHT22;1292;48.020;7.822;2022-10-16T14:27:28;23.80;99.90
2565;DHT22;1292;48.020;7.822;2022-10-16T14:30:19;23.80;99.90
2565;DHT22;1292;48.020;7.822;2022-10-16T14:32:54;23.80;99.90
2565;DHT22;1292;48.020;7.822;2022-10-16T14:35:30;23.80;99.90
2565;DHT22;1292;48.020;7.822;2022-10-16T14:37:59;23.90;99.90
2565;DHT22;1292;48.020;7.822;2022-10-16T14:40:29;23.90;99.90
2565;DHT22;1292;48.020;7.822;2022-10-16T14:42:56;23.80;99.90
2565;DHT22;1292;48.020;7.822;2022-10-16T14:45:26;23.80;99.90
2565;DHT22;1292;48.020;7.822;2022-10-16T14:47:55;23.80;99.90
2565;DHT22;1292;48.020;7.822;2022-10-16T14:50:23;23.80;99.90
2565;DHT22;1292;48.020;7.822;2022-10-16T14:52:51;23.80;99.90
2565;DHT22;1292;48.020;7.822;2022-10-16T14:55:18;23.80;99.90
2565;DHT22;1292;48.020;7.822;2022-10-16T14:57:46;23.70;99.90
2565;DHT22;1292;48.020;7.822;2022-10-16T15:00:18;23.70;99.90
2565;DHT22;1292;48.020;7.822;2022-10-16T15:02:46;23.70;99.90
2565;DHT22;1292;48.020;7.822;2022-10-16T15:05:16;23.80;99.90
2565;DHT22;1292;48.020;7.822;2022-10-16T15:07:44;23.70;99.90
2565;DHT22;1292;48.020;7.822;2022-10-16T15:10:13;23.70;99.90
2565;DHT22;1292;48.020;7.822;2022-10-16T15:12:40;23.70;99.90
2565;DHT22;1292;48.020;7.822;2022-10-16T15:15:24;23.70;99.90
2565;DHT22;1292;48.020;7.822;2022-10-16T15:17:55;23.70;99.90
2565;DHT22;1292;48.020;7.822;2022-10-16T15:20:23;23.70;99.90
2565;DHT22;1292;48.020;7.822;2022-10-16T15:22:50;23.70;99.90
2565;DHT22;1292;48.020;7.822;2022-10-16T15:25:30;23.70;99.90
2565;DHT22;1292;48.020;7.822;2022-10-16T15:27:58;23.60;99.90
2565;DHT22;1292;48.020;7.822;2022-10-16T15:30:25;23.60;99.90
2565;DHT22;1292;48.020;7.822;2022-10-16T15:32:52;23.60;99.90
2565;DHT22;1292;48.020;7.822;2022-10-16T15:35:19;23.60;99.90
2565;DHT22;1292;48.020;7.822;2022-10-16T15:37:47;23.50;99.90
2565;DHT22;1292;48.020;7.822;2022-10-16T15:40:15;23.50;99.90
2565;DHT22;1292;48.020;7.822;2022-10-16T15:42:43;23.50;99.90
2565;DHT22;1292;48.020;7.822;2022-10-16T15:45:11;23.40;99.90
2565;DHT22;1292;48.020;7.822;2022-10-16T15:47:38;23.40;99.90
2565;DHT22;1292;48.020;7.822;2022-10-16T15:50:08;23.30;99.90
2565;DHT22;1292;48.020;7.822;2022-10-16T15:52:35;23.20;99.90
2565;DHT22;1292;48.020;7.822;2022-10-16T15:55:02;23.20;99.90
2565;DHT22;1292;48.020;7.822;2022-10-16T15:57:29;23.10;99.90
2565;DHT22;1292;48.020;7.822;2022-10-16T15:59:58;23.00;99.90
2565;DHT22;1292;48.020;7.822;2022-10-16T16:02:24;22.90;99.90
2565;DHT22;1292;48.020;7.822;2022-10-16T16:04:52;22.90;99.90
2565;DHT22;1292;48.020;7.822;2022-10-16T16:07:19;22.80;99.90
2565;DHT22;1292;48.020;7.822;2022-10-16T16:09:45;22.70;99.90
2565;DHT22;1292;48.020;7.822;2022-10-16T16:12:12;22.60;99.90
2565;DHT22;1292;48.020;7.822;2022-10-16T16:14:40;22.50;99.90
2565;DHT22;1292;48.020;7.822;2022-10-16T16:17:08;22.40;99.90
2565;DHT22;1292;48.020;7.822;2022-10-16T16:19:35;22.30;99.90
2565;DHT22;1292;48.020;7.822;2022-10-16T16:22:02;22.10;99.90
2565;DHT22;1292;48.020;7.822;2022-10-16T16:24:28;22.00;99.90
2565;DHT22;1292;48.020;7.822;2022-10-16T16:26:55;21.90;99.90
2565;DHT22;1292;48.020;7.822;2022-10-16T16:29:23;21.90;99.90
2565;DHT22;1292;48.020;7.822;2022-10-16T16:31:49;21.70;99.90
2565;DHT22;1292;48.020;7.822;2022-10-16T16:34:24;21.60;99.90
2565;DHT22;1292;48.020;7.822;2022-10-16T16:36:51;21.50;99.90
2565;DHT22;1292;48.020;7.822;2022-10-16T16:39:18;21.40;99.90
2565;DHT22;1292;48.020;7.822;2022-10-16T16:41:45;21.30;99.90
2565;DHT22;1292;48.020;7.822;2022-10-16T16:44:13;21.20;99.90
2565;DHT22;1292;48.020;7.822;2022-10-16T16:46:41;21.10;99.90
2565;DHT22;1292;48.020;7.822;2022-10-16T16:49:09;21.00;99.90
2565;DHT22;1292;48.020;7.822;2022-10-16T16:51:38;20.90;99.90
2565;DHT22;1292;48.020;7.822;2022-10-16T16:54:05;20.80;99.90
2565;DHT22;1292;48.020;7.822;2022-10-16T16:56:33;20.70;99.90
2565;DHT22;1292;48.020;7.822;2022-10-16T16:59:01;20.60;99.90
2565;DHT22;1292;48.020;7.822;2022-10-16T17:01:28;20.50;99.90
2565;DHT22;1292;48.020;7.822;2022-10-16T17:03:56;20.40;99.90
2565;DHT22;1292;48.020;7.822;2022-10-16T17:06:25;20.30;99.90
2565;DHT22;1292;48.020;7.822;2022-10-16T17:08:53;20.30;99.90
2565;DHT22;1292;48.020;7.822;2022-10-16T17:11:22;20.20;99.90
2565;DHT22;1292;48.020;7.822;2022-10-16T17:13:50;20.10;99.90
2565;DHT22;1292;48.020;7.822;2022-10-16T17:16:18;20.00;99.90
2565;DHT22;1292;48.020;7.822;2022-10-16T17:18:45;20.00;99.90
2565;DHT22;1292;48.020;7.822;2022-10-16T17:21:12;19.90;99.90
2565;DHT22;1292;48.020;7.822;2022-10-16T17:23:39;19.80;99.90
2565;DHT22;1292;48.020;7.822;2022-10-16T17:26:09;19.80;99.90
2565;DHT22;1292;48.020;7.822;2022-10-16T17:28:37;19.70;99.90
2565;DHT22;1292;48.020;7.822;2022-10-16T17:31:08;19.70;99.90
2565;DHT22;1292;48.020;7.822;2022-10-16T17:33:36;19.60;99.90
2565;DHT22;1292;48.020;7.822;2022-10-16T17:36:03;19.50;99.90
2565;DHT22;1292;48.020;7.822;2022-10-16T17:38:30;19.40;99.90
2565;DHT22;1292;48.020;7.822;2022-10-16T17:40:57;19.40;99.90
2565;DHT22;1292;48.020;7.822;2022-10-16T17:43:25;19.30;99.90
2565;DHT22;1292;48.020;7.822;2022-10-16T17:45:53;19.20;99.90
2565;DHT22;1292;48.020;7.822;2022-10-16T17:48:20;19.20;99.90
2565;DHT22;1292;48.020;7.822;2022-10-16T17:50:47;19.20;99.90
2565;DHT22;1292;48.020;7.822;2022-10-16T17:53:13;19.20;99.90
2565;DHT22;1292;48.020;7.822;2022-10-16T17:55:41;19.20;99.90
2565;DHT22;1292;48.020;7.822;2022-10-16T17:58:08;19.20;99.90
2565;DHT22;1292;48.020;7.822;2022-10-16T18:00:36;19.20;99.90
2565;DHT22;1292;48.020;7.822;2022-10-16T18:03:03;19.20;99.90
2565;DHT22;1292;48.020;7.822;2022-10-16T18:05:30;19.20;99.90
2565;DHT22;1292;48.020;7.822;2022-10-16T18:07:57;19.20;99.90
2565;DHT22;1292;48.020;7.822;2022-10-16T18:10:24;19.20;99.90
2565;DHT22;1292;48.020;7.822;2022-10-16T18:12:51;19.20;99.90
2565;DHT22;1292;48.020;7.822;2022-10-16T18:15:18;19.20;99.90
2565;DHT22;1292;48.020;7.822;2022-10-16T18:17:46;19.20;99.90
2565;DHT22;1292;48.020;7.822;2022-10-16T18:20:13;19.20;99.90
2565;DHT22;1292;48.020;7.822;2022-10-16T18:22:40;19.20;99.90
2565;DHT22;1292;48.020;7.822;2022-10-16T18:25:07;19.20;99.90
2565;DHT22;1292;48.020;7.822;2022-10-16T18:27:34;19.20;99.90
2565;DHT22;1292;48.020;7.822;2022-10-16T18:30:02;19.20;99.90
2565;DHT22;1292;48.020;7.822;2022-10-16T18:32:29;19.20;99.90
2565;DHT22;1292;48.020;7.822;2022-10-16T18:34:57;19.20;99.90
2565;DHT22;1292;48.020;7.822;2022-10-16T18:37:23;19.20;99.90
2565;DHT22;1292;48.020;7.822;2022-10-16T18:39:50;19.10;99.90
2565;DHT22;1292;48.020;7.822;2022-10-16T18:42:17;19.10;99.90
2565;DHT22;1292;48.020;7.822;2022-10-16T18:44:44;19.10;99.90
2565;DHT22;1292;48.020;7.822;2022-10-16T18:47:11;19.00;99.90
2565;DHT22;1292;48.020;7.822;2022-10-16T18:49:38;19.00;99.90
2565;DHT22;1292;48.020;7.822;2022-10-16T18:52:06;18.80;99.90
2565;DHT22;1292;48.020;7.822;2022-10-16T18:54:33;18.80;99.90
2565;DHT22;1292;48.020;7.822;2022-10-16T18:57:02;18.60;99.90
2565;DHT22;1292;48.020;7.822;2022-10-16T18:59:29;18.60;99.90
2565;DHT22;1292;48.020;7.822;2022-10-16T19:01:56;18.50;99.90
2565;DHT22;1292;48.020;7.822;2022-10-16T19:04:23;18.50;99.90
2565;DHT22;1292;48.020;7.822;2022-10-16T19:06:52;18.50;99.90
2565;DHT22;1292;48.020;7.822;2022-10-16T19:09:21;18.50;99.90
2565;DHT22;1292;48.020;7.822;2022-10-16T19:11:50;18.40;99.90
2565;DHT22;1292;48.020;7.822;2022-10-16T19:14:17;18.40;99.90
2565;DHT22;1292;48.020;7.822;2022-10-16T19:16:45;18.30;99.90
2565;DHT22;1292;48.020;7.822;2022-10-16T19:19:16;18.30;99.90
2565;DHT22;1292;48.020;7.822;2022-10-16T19:21:44;18.20;99.90
2565;DHT22;1292;48.020;7.822;2022-10-16T19:24:14;18.20;99.90
2565;DHT22;1292;48.020;7.822;2022-10-16T19:26:43;18.10;99.90
2565;DHT22;1292;48.020;7.822;2022-10-16T19:29:10;18.10;99.90
2565;DHT22;1292;48.020;7.822;2022-10-16T19:31:37;18.10;99.90
2565;DHT22;1292;48.020;7.822;2022-10-16T19:34:04;18.00;99.90
2565;DHT22;1292;48.020;7.822;2022-10-16T19:36:33;17.80;99.90
2565;DHT22;1292;48.020;7.822;2022-10-16T19:39:03;17.70;99.90
2565;DHT22;1292;48.020;7.822;2022-10-16T19:41:30;17.70;99.90
2565;DHT22;1292;48.020;7.822;2022-10-16T19:44:02;17.60;99.90
2565;DHT22;1292;48.020;7.822;2022-10-16T19:46:30;17.60;99.90
2565;DHT22;1292;48.020;7.822;2022-10-16T19:48:59;17.40;99.90
2565;DHT22;1292;48.020;7.822;2022-10-16T19:51:28;17.40;99.90
2565;DHT22;1292;48.020;7.822;2022-10-16T19:53:57;17.30;99.90
2565;DHT22;1292;48.020;7.822;2022-10-16T19:56:26;17.20;99.90
2565;DHT22;1292;48.020;7.822;2022-10-16T19:58:55;17.20;99.90
2565;DHT22;1292;48.020;7.822;2022-10-16T20:01:24;17.20;99.90
2565;DHT22;1292;48.020;7.822;2022-10-16T20:03:51;17.30;99.90
2565;DHT22;1292;48.020;7.822;2022-10-16T20:06:18;17.20;99.90
2565;DHT22;1292;48.020;7.822;2022-10-16T20:08:47;17.20;99.90
2565;DHT22;1292;48.020;7.822;2022-10-16T20:11:18;17.20;99.90
2565;DHT22;1292;48.020;7.822;2022-10-16T20:13:45;17.20;99.90
2565;DHT22;1292;48.020;7.822;2022-10-16T20:16:12;17.20;99.90
2565;DHT22;1292;48.020;7.822;2022-10-16T20:18:42;17.20;99.90
2565;DHT22;1292;48.020;7.822;2022-10-16T20:21:09;17.10;99.90
2565;DHT22;1292;48.020;7.822;2022-10-16T20:23:36;17.10;99.90
2565;DHT22;1292;48.020;7.822;2022-10-16T20:26:03;17.00;99.90
2565;DHT22;1292;48.020;7.822;2022-10-16T20:28:31;17.00;99.90
2565;DHT22;1292;48.020;7.822;2022-10-16T20:31:04;17.00;99.90
2565;DHT22;1292;48.020;7.822;2022-10-16T20:33:31;17.00;99.90
2565;DHT22;1292;48.020;7.822;2022-10-16T20:35:59;16.80;99.90
2565;DHT22;1292;48.020;7.822;2022-10-16T20:38:26;16.70;99.90
2565;DHT22;1292;48.020;7.822;2022-10-16T20:40:53;16.60;99.90
2565;DHT22;1292;48.020;7.822;2022-10-16T20:43:20;16.60;99.90
2565;DHT22;1292;48.020;7.822;2022-10-16T20:45:58;16.70;99.90
2565;DHT22;1292;48.020;7.822;2022-10-16T20:48:25;16.70;99.90
2565;DHT22;1292;48.020;7.822;2022-10-16T20:50:52;16.70;99.90
2565;DHT22;1292;48.020;7.822;2022-10-16T20:53:20;16.60;99.90
2565;DHT22;1292;48.020;7.822;2022-10-16T20:55:47;16.20;99.90
2565;DHT22;1292;48.020;7.822;2022-10-16T20:58:14;16.00;99.90
